createdAt,value
2022-10-19T00:00:14.109Z,3.90
2022-10-19T00:02:40.599Z,3.70
2022-10-19T00:05:08.944Z,4.40
2022-10-19T00:07:36.048Z,3.50
2022-10-19T00:10:03.841Z,4.33
2022-10-19T00:12:30.395Z,3.67
2022-10-19T00:14:57.221Z,3.70
2022-10-19T00:17:23.743Z,3.43
2022-10-19T00:19:50.294Z,3.83
2022-10-19T00:22:18.230Z,3.53
2022-10-19T00:24:44.746Z,3.43
2022-10-19T00:27:11.249Z,3.50
2022-10-19T00:29:38.329Z,3.53
2022-10-19T00:32:05.124Z,3.47
2022-10-19T00:34:31.628Z,3.50
2022-10-19T00:36:58.108Z,3.50
2022-10-19T00:39:25.983Z,3.93
2022-10-19T00:41:52.483Z,4.00
2022-10-19T00:44:58.068Z,4.20
2022-10-19T00:47:24.719Z,3.43
2022-10-19T00:49:51.997Z,4.23
2022-10-19T00:52:23.433Z,3.97
2022-10-19T00:54:53.654Z,3.63
2022-10-19T00:57:20.670Z,3.60
2022-10-19T00:59:47.738Z,3.90
2022-10-19T01:02:14.251Z,3.70
2022-10-19T01:04:47.504Z,4.00
2022-10-19T01:07:14.082Z,3.77
2022-10-19T01:09:40.598Z,4.37
2022-10-19T01:12:16.639Z,4.97
2022-10-19T01:14:53.695Z,4.40
2022-10-19T01:17:27.924Z,4.37
2022-10-19T01:20:26.416Z,4.17
2022-10-19T01:23:05.009Z,4.60
2022-10-19T01:25:42.238Z,3.43
2022-10-19T01:28:25.420Z,4.43
2022-10-19T01:30:59.300Z,4.20
2022-10-19T01:33:37.344Z,4.43
2022-10-19T01:36:12.547Z,3.80
2022-10-19T01:38:49.058Z,4.23
2022-10-19T01:41:19.470Z,4.80
2022-10-19T01:43:54.420Z,4.07
2022-10-19T01:46:28.823Z,4.00
2022-10-19T01:49:01.919Z,3.93
2022-10-19T01:51:31.690Z,3.63
2022-10-19T01:54:02.180Z,3.70
2022-10-19T01:56:31.269Z,4.47
2022-10-19T01:59:00.866Z,4.00
2022-10-19T02:01:32.854Z,3.87
2022-10-19T02:04:00.631Z,3.53
2022-10-19T02:06:28.726Z,4.07
2022-10-19T02:08:55.538Z,3.97
2022-10-19T02:11:23.303Z,3.60
2022-10-19T02:14:01.678Z,3.67
2022-10-19T02:16:33.570Z,3.03
2022-10-19T02:19:01.780Z,3.87
2022-10-19T02:21:28.578Z,3.40
2022-10-19T02:23:55.244Z,4.53
2022-10-19T02:26:22.285Z,4.43
2022-10-19T02:28:49.715Z,3.90
2022-10-19T02:31:16.576Z,3.87
2022-10-19T02:33:44.518Z,3.70
2022-10-19T02:36:11.059Z,3.50
2022-10-19T02:38:37.610Z,3.37
2022-10-19T02:41:09.244Z,3.07
2022-10-19T02:43:39.035Z,3.60
2022-10-19T02:46:10.929Z,3.97
2022-10-19T02:48:38.845Z,3.30
2022-10-19T02:51:06.756Z,3.10
2022-10-19T02:53:33.259Z,3.53
2022-10-19T02:55:59.761Z,3.03
2022-10-19T02:58:26.290Z,3.53
2022-10-19T03:00:52.801Z,2.83
2022-10-19T03:03:19.342Z,2.97
2022-10-19T03:05:45.857Z,2.77
2022-10-19T03:08:13.774Z,2.77
2022-10-19T03:10:40.294Z,3.03
2022-10-19T03:13:06.785Z,3.53
2022-10-19T03:15:33.313Z,3.33
2022-10-19T03:17:59.779Z,3.47
2022-10-19T03:20:26.284Z,3.03
2022-10-19T03:25:21.548Z,3.90
2022-10-19T03:27:48.032Z,6.50
2022-10-19T03:30:14.583Z,6.53
2022-10-19T03:32:41.047Z,4.50
2022-10-19T03:35:08.059Z,3.23
2022-10-19T03:37:34.796Z,4.20
2022-10-19T03:40:01.508Z,4.60
2022-10-19T03:42:29.483Z,3.60
2022-10-19T03:44:55.997Z,4.67
2022-10-19T03:47:22.780Z,4.23
2022-10-19T03:49:49.285Z,4.97
2022-10-19T03:52:16.044Z,4.90
2022-10-19T03:54:42.563Z,5.00
2022-10-19T03:57:09.067Z,4.27
2022-10-19T03:59:36.893Z,3.63
2022-10-19T04:02:03.554Z,3.97
2022-10-19T04:04:30.117Z,4.00
2022-10-19T04:06:56.617Z,3.73
2022-10-19T04:09:23.341Z,4.10
2022-10-19T04:11:50.339Z,4.07
2022-10-19T04:14:27.090Z,4.07
2022-10-19T04:17:01.394Z,4.30
2022-10-19T04:19:27.929Z,4.97
2022-10-19T04:21:54.478Z,4.50
2022-10-19T04:24:21.082Z,4.67
2022-10-19T04:26:49.268Z,4.67
2022-10-19T04:29:17.380Z,4.93
2022-10-19T04:31:43.867Z,4.17
2022-10-19T04:34:12.064Z,4.50
2022-10-19T04:36:38.558Z,4.73
2022-10-19T04:39:05.464Z,4.67
2022-10-19T04:41:32.322Z,4.40
2022-10-19T04:44:00.536Z,4.80
2022-10-19T04:46:28.487Z,4.57
2022-10-19T04:48:56.132Z,4.70
2022-10-19T04:51:25.112Z,4.67
2022-10-19T04:53:53.398Z,4.57
2022-10-19T04:56:24.638Z,4.70
2022-10-19T04:58:51.152Z,5.00
2022-10-19T05:01:20.011Z,4.93
2022-10-19T05:03:47.275Z,5.67
2022-10-19T05:06:15.293Z,4.90
2022-10-19T05:08:43.140Z,4.73
2022-10-19T05:11:12.149Z,5.60
2022-10-19T05:13:38.981Z,5.13
2022-10-19T05:16:07.459Z,5.07
2022-10-19T05:18:34.478Z,4.83
2022-10-19T05:21:02.785Z,4.77
2022-10-19T05:23:29.475Z,5.03
2022-10-19T05:26:02.820Z,5.00
2022-10-19T05:28:29.498Z,4.40
2022-10-19T05:30:56.066Z,4.70
2022-10-19T05:33:22.603Z,5.23
2022-10-19T05:35:49.097Z,5.60
2022-10-19T05:38:15.561Z,5.30
2022-10-19T05:40:45.188Z,4.70
2022-10-19T05:43:13.079Z,5.63
2022-10-19T05:45:39.579Z,4.97
2022-10-19T05:48:06.347Z,5.37
2022-10-19T05:50:32.847Z,5.50
2022-10-19T05:52:59.348Z,5.60
2022-10-19T05:55:25.849Z,5.27
2022-10-19T05:57:52.321Z,5.20
2022-10-19T06:00:20.409Z,5.40
2022-10-19T06:02:46.867Z,5.10
2022-10-19T06:05:13.488Z,5.53
2022-10-19T06:07:39.986Z,5.50
2022-10-19T06:10:07.075Z,5.07
2022-10-19T06:12:33.571Z,5.70
2022-10-19T06:15:00.049Z,5.77
2022-10-19T06:17:29.420Z,5.07
2022-10-19T06:19:55.877Z,6.00
2022-10-19T06:22:22.382Z,5.77
2022-10-19T06:24:49.304Z,5.10
2022-10-19T06:27:15.851Z,5.33
2022-10-19T06:29:42.330Z,5.47
2022-10-19T06:32:08.825Z,5.57
2022-10-19T06:34:36.666Z,5.43
2022-10-19T06:37:03.221Z,5.57
2022-10-19T06:39:29.729Z,4.83
2022-10-19T06:41:56.242Z,5.07
2022-10-19T06:44:22.727Z,5.23
2022-10-19T06:46:49.238Z,5.43
2022-10-19T06:49:15.758Z,4.63
2022-10-19T06:51:43.608Z,5.70
2022-10-19T06:54:10.115Z,5.37
2022-10-19T06:56:36.683Z,5.40
2022-10-19T06:59:03.232Z,4.93
2022-10-19T07:01:29.827Z,4.27
2022-10-19T07:03:56.370Z,4.63
2022-10-19T07:06:23.542Z,4.27
2022-10-19T07:08:52.154Z,4.47
2022-10-19T07:11:20.575Z,4.37
2022-10-19T07:13:47.194Z,4.40
2022-10-19T07:16:17.972Z,4.70
2022-10-19T07:18:49.184Z,4.07
2022-10-19T07:21:16.948Z,4.10
2022-10-19T07:23:44.653Z,4.40
2022-10-19T07:26:15.268Z,4.87
2022-10-19T07:28:45.878Z,4.37
2022-10-19T07:31:15.006Z,4.30
2022-10-19T07:33:41.560Z,4.80
2022-10-19T07:36:10.098Z,4.07
2022-10-19T07:38:37.029Z,4.43
2022-10-19T07:41:05.093Z,4.00
2022-10-19T07:43:33.901Z,4.20
2022-10-19T07:46:02.005Z,4.40
2022-10-19T07:48:28.904Z,4.27
2022-10-19T07:50:55.721Z,3.70
2022-10-19T07:53:22.864Z,4.50
2022-10-19T07:55:49.355Z,3.70
2022-10-19T07:58:15.930Z,4.00
2022-10-19T08:00:43.796Z,4.13
2022-10-19T08:06:00.403Z,4.13
2022-10-19T08:08:27.006Z,4.00
2022-10-19T08:10:53.717Z,4.00
2022-10-19T08:13:20.292Z,3.90
2022-10-19T08:15:48.181Z,3.73
2022-10-19T08:18:14.748Z,4.00
2022-10-19T08:20:41.448Z,3.57
2022-10-19T08:23:07.961Z,4.23
2022-10-19T08:25:34.714Z,4.30
2022-10-19T08:28:01.193Z,3.90
2022-10-19T08:30:27.718Z,5.00
2022-10-19T08:32:55.554Z,5.00
2022-10-19T08:35:22.074Z,4.03
2022-10-19T08:37:49.080Z,4.57
2022-10-19T08:40:20.628Z,5.00
2022-10-19T08:42:56.980Z,5.50
2022-10-19T08:45:39.180Z,4.67
2022-10-19T08:48:30.254Z,4.10
2022-10-19T08:50:58.574Z,4.13
2022-10-19T08:53:32.873Z,4.00
2022-10-19T08:56:12.439Z,3.53
2022-10-19T08:59:13.022Z,2.93
2022-10-19T09:01:42.787Z,3.17
2022-10-19T09:04:18.397Z,2.80
2022-10-19T09:06:51.202Z,2.90
2022-10-19T09:09:19.308Z,3.00
2022-10-19T09:11:48.765Z,3.60
2022-10-19T09:14:20.895Z,3.20
2022-10-19T09:16:47.428Z,2.70
2022-10-19T09:19:20.872Z,3.00
2022-10-19T09:21:51.812Z,2.70
2022-10-19T09:24:28.304Z,2.27
2022-10-19T09:26:57.994Z,2.43
2022-10-19T09:29:29.458Z,2.50
2022-10-19T09:34:36.333Z,2.80
2022-10-19T09:37:03.148Z,3.10
2022-10-19T09:39:31.198Z,2.60
2022-10-19T09:41:59.691Z,2.90
2022-10-19T09:44:27.382Z,3.43
2022-10-19T09:47:02.499Z,3.03
2022-10-19T09:49:41.324Z,2.97
2022-10-19T09:52:23.643Z,2.53
2022-10-19T09:55:00.965Z,2.40
2022-10-19T09:57:27.511Z,2.83
2022-10-19T09:59:55.106Z,2.93
2022-10-19T10:02:28.862Z,2.33
2022-10-19T10:05:04.767Z,2.50
2022-10-19T10:07:36.243Z,2.40
2022-10-19T10:10:09.948Z,2.80
2022-10-19T10:12:39.743Z,2.50
2022-10-19T10:15:07.275Z,2.50
2022-10-19T10:17:33.843Z,2.97
2022-10-19T10:23:05.391Z,2.43
2022-10-19T10:25:34.171Z,2.77
2022-10-19T10:28:03.406Z,2.60
2022-10-19T10:30:33.917Z,2.50
2022-10-19T10:33:09.287Z,2.60
2022-10-19T10:35:50.681Z,2.57
2022-10-19T10:38:19.803Z,2.87
2022-10-19T10:40:54.464Z,2.90
2022-10-19T10:43:26.223Z,3.00
2022-10-19T10:45:54.586Z,2.67
2022-10-19T10:48:28.253Z,2.73
2022-10-19T10:50:57.018Z,2.23
2022-10-19T10:53:35.881Z,3.13
2022-10-19T10:56:02.862Z,2.70
2022-10-19T10:58:36.575Z,2.70
2022-10-19T11:01:11.578Z,2.83
2022-10-19T11:03:46.561Z,2.37
2022-10-19T11:06:16.885Z,2.60
2022-10-19T11:08:48.993Z,2.50
2022-10-19T11:11:20.393Z,2.13
2022-10-19T11:13:51.414Z,2.40
2022-10-19T11:16:19.495Z,2.33
2022-10-19T11:18:50.073Z,2.50
2022-10-19T11:21:24.152Z,2.53
2022-10-19T11:23:59.169Z,2.00
2022-10-19T11:26:40.409Z,2.10
2022-10-19T11:29:21.243Z,2.50
2022-10-19T11:31:50.053Z,2.20
2022-10-19T11:34:37.742Z,2.43
2022-10-19T11:37:16.283Z,2.40
2022-10-19T11:39:53.379Z,2.40
2022-10-19T11:42:25.916Z,2.73
2022-10-19T11:45:02.658Z,2.40
2022-10-19T11:47:40.963Z,2.87
2022-10-19T11:50:19.041Z,2.80
2022-10-19T11:52:53.030Z,2.37
2022-10-19T11:55:33.159Z,2.60
2022-10-19T11:58:07.638Z,2.37
2022-10-19T12:00:42.754Z,2.63
2022-10-19T12:03:24.853Z,2.60
2022-10-19T12:06:02.394Z,2.33
2022-10-19T12:08:45.557Z,1.90
2022-10-19T12:11:25.123Z,2.50
2022-10-19T12:13:55.259Z,3.13
2022-10-19T12:16:27.676Z,3.97
2022-10-19T12:18:57.788Z,3.13
2022-10-19T12:21:27.960Z,2.67
2022-10-19T12:23:57.277Z,2.30
2022-10-19T12:26:25.609Z,2.27
2022-10-19T12:28:55.499Z,2.37
2022-10-19T12:31:23.604Z,2.00
2022-10-19T12:33:57.517Z,2.50
2022-10-19T12:36:35.565Z,1.93
2022-10-19T12:39:11.228Z,1.97
2022-10-19T12:41:45.607Z,2.13
2022-10-19T12:44:28.990Z,1.57
2022-10-19T12:47:00.946Z,1.43
2022-10-19T12:49:44.266Z,1.80
2022-10-19T12:52:11.390Z,2.13
2022-10-19T12:54:41.598Z,1.63
2022-10-19T12:57:28.389Z,1.70
2022-10-19T13:00:00.753Z,2.60
2022-10-19T13:02:30.882Z,2.10
2022-10-19T13:04:57.803Z,2.07
2022-10-19T13:07:26.094Z,2.10
2022-10-19T13:10:00.391Z,2.30
2022-10-19T13:12:29.543Z,2.50
2022-10-19T13:14:57.737Z,2.60
2022-10-19T13:17:41.191Z,2.40
2022-10-19T13:20:47.482Z,2.40
2022-10-19T13:23:40.224Z,2.17
2022-10-19T13:26:33.405Z,2.93
2022-10-19T13:29:00.045Z,2.83
2022-10-19T13:31:28.751Z,2.43
2022-10-19T13:33:56.053Z,2.33
2022-10-19T13:36:24.684Z,2.20
2022-10-19T13:39:11.914Z,2.43
2022-10-19T13:41:51.283Z,2.37
2022-10-19T13:44:21.826Z,2.60
2022-10-19T13:46:58.031Z,2.30
2022-10-19T13:49:55.955Z,2.20
2022-10-19T13:52:51.198Z,2.27
2022-10-19T13:55:29.531Z,2.53
2022-10-19T13:58:18.197Z,2.63
2022-10-19T14:01:05.337Z,2.73
2022-10-19T14:03:46.648Z,2.80
2022-10-19T14:06:27.598Z,2.97
2022-10-19T14:09:31.703Z,2.77
2022-10-19T14:12:05.877Z,3.00
2022-10-19T14:19:47.804Z,3.43
2022-10-19T14:22:25.934Z,3.23
2022-10-19T14:24:59.344Z,3.47
2022-10-19T14:27:26.094Z,3.87
2022-10-19T14:29:54.449Z,3.67
2022-10-19T14:32:25.308Z,3.93
2022-10-19T14:34:52.854Z,3.70
2022-10-19T14:37:22.037Z,3.40
2022-10-19T14:40:00.854Z,3.80
2022-10-19T14:42:37.237Z,3.00
2022-10-19T14:45:10.084Z,3.40
2022-10-19T14:47:36.775Z,3.50
2022-10-19T14:50:03.939Z,3.57
2022-10-19T14:52:35.798Z,3.33
2022-10-19T14:55:08.186Z,3.77
2022-10-19T14:57:37.845Z,3.20
2022-10-19T15:00:14.648Z,3.70
2022-10-19T15:02:44.927Z,3.17
2022-10-19T15:05:19.161Z,3.93
2022-10-19T15:07:45.981Z,3.60
2022-10-19T15:10:20.048Z,3.73
2022-10-19T15:12:47.143Z,3.67
2022-10-19T15:15:19.044Z,3.30
2022-10-19T15:17:53.678Z,3.20
2022-10-19T15:20:27.040Z,3.13
2022-10-19T15:22:53.755Z,3.50
2022-10-19T15:25:26.520Z,3.20
2022-10-19T15:27:53.117Z,3.07
2022-10-19T15:30:32.407Z,2.60
2022-10-19T15:33:14.033Z,2.87
2022-10-19T15:35:43.305Z,2.80
2022-10-19T15:38:25.924Z,2.97
2022-10-19T15:40:57.522Z,3.30
2022-10-19T15:43:38.164Z,3.10
2022-10-19T15:46:19.609Z,3.13
2022-10-19T15:48:51.102Z,2.77
2022-10-19T15:51:36.590Z,3.03
2022-10-19T15:54:05.064Z,2.60
2022-10-19T15:56:33.394Z,2.13
2022-10-19T15:59:01.475Z,2.40
2022-10-19T16:01:31.578Z,2.57
2022-10-19T16:03:58.345Z,2.07
2022-10-19T16:06:27.597Z,2.37
2022-10-19T16:08:54.420Z,2.30
2022-10-19T16:11:22.282Z,3.10
2022-10-19T16:13:49.155Z,2.83
2022-10-19T16:16:21.199Z,3.00
2022-10-19T16:18:49.079Z,2.60
2022-10-19T16:21:16.260Z,2.33
2022-10-19T16:23:42.794Z,2.77
2022-10-19T16:26:09.577Z,3.33
2022-10-19T16:28:36.066Z,4.63
2022-10-19T16:31:02.628Z,3.60
2022-10-19T16:33:29.143Z,3.10
2022-10-19T16:35:56.982Z,2.80
2022-10-19T16:38:23.473Z,2.37
2022-10-19T16:40:49.946Z,2.40
2022-10-19T16:43:16.447Z,2.90
2022-10-19T16:45:43.068Z,2.20
2022-10-19T16:48:11.318Z,2.67
2022-10-19T16:50:38.002Z,2.40
2022-10-19T16:53:07.505Z,2.53
2022-10-19T16:55:33.996Z,2.60
2022-10-19T16:58:00.509Z,2.37
2022-10-19T17:00:27.048Z,2.60
2022-10-19T17:02:53.537Z,2.77
2022-10-19T17:05:20.084Z,3.20
2022-10-19T17:07:46.610Z,2.53
2022-10-19T17:10:14.605Z,2.60
2022-10-19T17:12:41.129Z,2.13
2022-10-19T17:15:40.916Z,2.77
2022-10-19T17:17:55.354Z,2.27
2022-10-19T17:20:21.855Z,2.17
2022-10-19T17:22:51.432Z,2.30
2022-10-19T17:25:19.296Z,2.53
2022-10-19T17:27:50.112Z,2.50
2022-10-19T17:30:16.831Z,3.30
2022-10-19T17:32:43.383Z,2.93
2022-10-19T17:35:10.071Z,2.73
2022-10-19T17:37:37.044Z,3.23
2022-10-19T17:40:04.525Z,2.43
2022-10-19T17:42:32.440Z,2.83
2022-10-19T17:44:58.958Z,2.40
2022-10-19T17:47:25.508Z,2.57
2022-10-19T17:49:52.007Z,2.60
2022-10-19T17:52:18.524Z,2.80
2022-10-19T17:54:54.675Z,2.80
2022-10-19T17:57:34.811Z,3.00
2022-10-19T18:00:01.647Z,3.03
2022-10-19T18:02:28.165Z,2.67
2022-10-19T18:04:54.719Z,3.43
2022-10-19T18:07:21.508Z,3.27
2022-10-19T18:09:48.139Z,3.50
2022-10-19T18:12:14.637Z,3.20
2022-10-19T18:14:43.857Z,4.43
2022-10-19T18:17:10.687Z,4.97
2022-10-19T18:19:37.211Z,5.20
2022-10-19T18:22:03.731Z,5.80
2022-10-19T18:24:30.391Z,6.07
2022-10-19T18:26:56.923Z,6.37
2022-10-19T18:29:26.301Z,5.50
2022-10-19T18:31:54.376Z,4.63
2022-10-19T18:34:22.603Z,4.43
2022-10-19T18:36:49.328Z,4.67
2022-10-19T18:39:16.372Z,4.03
2022-10-19T18:41:43.123Z,4.40
2022-10-19T18:44:12.648Z,4.60
2022-10-19T18:46:39.703Z,4.30
2022-10-19T18:49:08.771Z,5.17
2022-10-19T18:51:35.886Z,4.47
2022-10-19T18:54:02.445Z,5.33
2022-10-19T18:56:29.193Z,6.03
2022-10-19T18:58:56.138Z,5.80
2022-10-19T19:01:24.231Z,5.17
2022-10-19T19:03:52.117Z,5.50
2022-10-19T19:06:21.862Z,4.83
2022-10-19T19:08:48.664Z,4.90
2022-10-19T19:11:17.665Z,5.80
2022-10-19T19:13:48.160Z,5.73
2022-10-19T19:16:14.744Z,7.63
2022-10-19T19:18:41.269Z,5.67
2022-10-19T19:21:14.253Z,4.40
2022-10-19T19:23:42.258Z,4.97
2022-10-19T19:26:09.136Z,4.30
2022-10-19T19:28:39.150Z,4.90
2022-10-19T19:31:09.401Z,4.73
2022-10-19T19:33:36.257Z,4.60
2022-10-19T19:36:05.050Z,4.30
2022-10-19T19:38:32.119Z,4.60
2022-10-19T19:41:03.529Z,4.00
2022-10-19T19:43:31.310Z,4.00
2022-10-19T19:46:00.977Z,3.73
2022-10-19T19:48:29.814Z,4.00
2022-10-19T19:50:56.496Z,3.77
2022-10-19T19:53:23.117Z,4.00
2022-10-19T19:55:50.043Z,3.70
2022-10-19T19:58:17.915Z,2.93
2022-10-19T20:00:45.375Z,3.10
2022-10-19T20:03:12.866Z,3.43
2022-10-19T20:05:40.090Z,4.07
2022-10-19T20:08:06.705Z,4.27
2022-10-19T20:10:33.344Z,3.33
2022-10-19T20:12:59.883Z,3.87
2022-10-19T20:15:27.822Z,4.20
2022-10-19T20:17:54.331Z,3.90
2022-10-19T20:20:20.979Z,3.77
2022-10-19T20:22:48.589Z,3.20
2022-10-19T20:25:15.630Z,3.50
2022-10-19T20:27:42.494Z,3.40
2022-10-19T20:30:09.870Z,2.60
2022-10-19T20:32:38.222Z,2.70
2022-10-19T20:35:05.420Z,2.83
2022-10-19T20:37:31.924Z,2.53
2022-10-19T20:39:58.446Z,2.40
2022-10-19T20:42:24.976Z,2.43
2022-10-19T20:44:51.495Z,2.40
2022-10-19T20:47:18.010Z,2.90
2022-10-19T20:49:45.871Z,2.30
2022-10-19T20:52:12.350Z,2.20
2022-10-19T20:54:38.847Z,2.23
2022-10-19T20:57:05.347Z,2.53
2022-10-19T20:59:31.890Z,2.23
2022-10-19T21:01:58.550Z,2.03
2022-10-19T21:04:25.667Z,2.30
2022-10-19T21:06:53.590Z,2.50
2022-10-19T21:09:21.582Z,2.27
2022-10-19T21:11:49.670Z,2.37
2022-10-19T21:14:20.270Z,2.30
2022-10-19T21:16:50.711Z,1.90
2022-10-19T21:19:19.005Z,2.20
2022-10-19T21:21:47.401Z,2.30
2022-10-19T21:24:17.562Z,2.40
2022-10-19T21:26:44.588Z,2.10
2022-10-19T21:29:12.485Z,2.27
2022-10-19T21:31:42.179Z,2.10
2022-10-19T21:34:14.715Z,1.73
2022-10-19T21:36:41.662Z,2.20
2022-10-19T21:39:08.520Z,1.93
2022-10-19T21:41:36.628Z,2.00
2022-10-19T21:44:03.253Z,2.40
2022-10-19T21:46:29.817Z,2.33
2022-10-19T21:48:56.514Z,2.37
2022-10-19T21:51:31.970Z,2.10
2022-10-19T21:53:58.573Z,2.07
2022-10-19T21:56:25.084Z,2.37
2022-10-19T21:58:53.759Z,1.90
2022-10-19T22:01:22.572Z,2.00
2022-10-19T22:03:49.083Z,1.73
2022-10-19T22:06:15.741Z,1.77
2022-10-19T22:08:45.084Z,1.90
2022-10-19T22:11:13.613Z,1.90
2022-10-19T22:13:40.387Z,2.10
2022-10-19T22:16:10.926Z,1.90
2022-10-19T22:18:37.769Z,2.30
2022-10-19T22:21:05.628Z,2.00
2022-10-19T22:23:32.159Z,2.30
2022-10-19T22:25:58.686Z,1.77
2022-10-19T22:28:25.605Z,2.40
2022-10-19T22:30:53.052Z,2.57
2022-10-19T22:33:20.902Z,2.50
2022-10-19T22:35:53.757Z,1.80
2022-10-19T22:38:20.242Z,2.53
2022-10-19T22:40:46.747Z,2.67
2022-10-19T22:43:13.298Z,2.00
2022-10-19T22:45:39.850Z,2.30
2022-10-19T22:48:06.676Z,2.37
2022-10-19T22:50:34.552Z,2.10
2022-10-19T22:53:01.030Z,2.10
2022-10-19T22:55:27.585Z,2.03
2022-10-19T22:57:54.061Z,1.93
2022-10-19T23:00:20.562Z,2.07
2022-10-19T23:02:47.061Z,1.97
2022-10-19T23:05:13.733Z,1.90
2022-10-19T23:07:41.685Z,1.90
2022-10-19T23:10:08.583Z,1.90
2022-10-19T23:12:35.074Z,1.80
2022-10-19T23:15:01.605Z,2.30
2022-10-19T23:17:28.125Z,1.90
2022-10-19T23:19:54.610Z,1.70
2022-10-19T23:22:21.095Z,2.30
2022-10-19T23:24:49.028Z,1.80
2022-10-19T23:27:15.620Z,1.63
2022-10-19T23:29:42.176Z,1.77
2022-10-19T23:32:08.701Z,1.93
2022-10-19T23:37:06.636Z,1.67
2022-10-19T23:39:33.115Z,1.80
2022-10-19T23:42:01.020Z,2.03
2022-10-19T23:44:27.511Z,2.00
2022-10-19T23:46:54.003Z,1.93
2022-10-19T23:49:20.494Z,1.90
2022-10-19T23:51:46.992Z,2.20
2022-10-19T23:54:13.486Z,2.53
2022-10-19T23:56:40.083Z,2.10
2022-10-19T23:59:07.959Z,2.00
